Time;durP1;ratioP1;P1;durP2;ratioP2;P2;SDS_P1;SDS_P2;PMS_P1;PMS_P2;Temp;Humidity;BMP_temperature;BMP_pressure;BME280_temperature;BME280_humidity;BME280_pressure;Samples;Min_cycle;Max_cycle;Signal;HPM_P1;HPM_P2
2020/12/06 00:02:01;;;;;;;;;;;;;;;;;;6152675;23;1116;-80
2020/12/06 00:04:29;;;;;;;;;;;;;;;;;;6153486;23;1940;-79
2020/12/06 00:06:56;;;;;;;;;;;;;;;;;;6152805;23;1044;-79
2020/12/06 00:09:22;;;;;;;;;;;;;;;;;;6152320;23;1071;-80
2020/12/06 00:11:48;;;;;;;;;;;;;;;;;;6126455;23;1252;-78
2020/12/06 00:14:14;;;;;;;;;;;;;;;;;;6152722;23;999;-79
2020/12/06 00:16:41;;;;;;;;;;;;;;;;;;6151912;23;1142;-78
2020/12/06 00:19:07;;;;;;;;;;;;;;;;;;6152520;23;1052;-78
2020/12/06 00:21:34;;;;;;;;;;;;;;;;;;6152954;23;1127;-77
2020/12/06 00:24:04;;;;;;;;;;;;;;;;;;6152279;23;1897;-79
2020/12/06 00:26:30;;;;;;;;;;;;;;;;;;6153006;23;1000;-78
2020/12/06 00:28:56;;;;;;;;;;;;;;;;;;6152477;23;1004;-79
2020/12/06 00:31:22;;;;;;;;;;;;;;;;;;6152056;23;1093;-79
2020/12/06 00:33:49;;;;;;;;;;;;;;;;;;6153472;23;1130;-79
2020/12/06 00:36:15;;;;;;;;;;;;;;;;;;6153432;23;1071;-79
2020/12/06 00:38:43;;;;;;;;;;;;;;;;;;6126647;23;1438;-79
2020/12/06 00:41:10;;;;;;;;;;;;;;;;;;6151842;23;1107;-78
2020/12/06 00:43:36;;;;;;;;;;;;;;;;;;6152101;23;1896;-78
2020/12/06 00:46:02;;;;;;;;;;;;;;;;;;6151696;23;1184;-79
2020/12/06 00:48:29;;;;;;;;;;;;;;;;;;6152851;23;1132;-79
2020/12/06 00:50:55;;;;;;;;;;;;;;;;;;6151537;23;1329;-79
2020/12/06 00:53:21;;;;;;;;;;;;;;;;;;6151734;23;1108;-79
2020/12/06 00:55:48;;;;;;;;;;;;;;;;;;6152876;23;1052;-79
2020/12/06 00:58:14;;;;;;;;;;;;;;;;;;6151888;23;1040;-78
2020/12/06 01:00:41;;;;;;;;;;;;;;;;;;6152440;23;1059;-78
2020/12/06 01:03:07;;;;;;;;;;;;;;;;;;6151962;23;1908;-78
2020/12/06 01:05:34;;;;;;;;;;;;;;;;;;6152221;23;1123;-78
2020/12/06 01:08:00;;;;;;;;;;;;;;;;;;6151370;23;1099;-78
2020/12/06 01:10:26;;;;;;;;;;;;;;;;;;6151542;23;1209;-79
2020/12/06 01:12:53;;;;;;;;;;;;;;;;;;6125940;23;1100;-79
2020/12/06 01:15:19;;;;;;;;;;;;;;;;;;6152369;23;1270;-77
2020/12/06 01:17:46;;;;;;;;;;;;;;;;;;6151990;23;1131;-79
2020/12/06 01:20:12;;;;;;;;;;;;;;;;;;6152815;23;1018;-78
2020/12/06 01:22:39;;;;;;;;;;;;;;;;;;6151579;23;1135;-78
2020/12/06 01:25:05;;;;;;;;;;;;;;;;;;6152216;23;1942;-77
2020/12/06 01:27:31;;;;;;;;;;;;;;;;;;6152860;23;1031;-79
2020/12/06 01:29:59;;;;;;;;;;;;;;;;;;6152553;23;1108;-79
2020/12/06 01:32:25;;;;;;;;;;;;;;;;;;6153932;23;1124;-79
2020/12/06 01:34:51;;;;;;;;;;;;;;;;;;6154583;23;1095;-78
2020/12/06 01:37:17;;;;;;;;;;;;;;;;;;6153327;23;1150;-78
2020/12/06 01:39:44;;;;;;;;;;;;;;;;;;6154684;23;1171;-79
2020/12/06 01:42:10;;;;;;;;;;;;;;;;;;6153289;23;1658;-79
2020/12/06 01:44:36;;;;;;;;;;;;;;;;;;6152901;23;1889;-79
2020/12/06 01:47:04;;;;;;;;;;;;;;;;;;6154276;23;1103;-79
2020/12/06 01:49:35;;;;;;;;;;;;;;;;;;6154364;23;1083;-80
2020/12/06 01:52:02;;;;;;;;;;;;;;;;;;6151307;23;1321;-79
2020/12/06 01:54:28;;;;;;;;;;;;;;;;;;6153673;23;1345;-78
2020/12/06 01:56:55;;;;;;;;;;;;;;;;;;6153179;23;1127;-78
2020/12/06 01:59:21;;;;;;;;;;;;;;;;;;6154108;23;1032;-77
2020/12/06 02:01:53;;;;;;;;;;;;;;;;;;6153994;23;1064;-78
2020/12/06 02:04:20;;;;;;;;;;;;;;;;;;6154252;23;1905;-78
2020/12/06 02:06:47;;;;;;;;;;;;;;;;;;6153709;23;1029;-78
2020/12/06 02:09:13;;;;;;;;;;;;;;;;;;6153285;23;1267;-79
2020/12/06 02:11:40;;;;;;;;;;;;;;;;;;6153897;23;1070;-79
2020/12/06 02:14:06;;;;;;;;;;;;;;;;;;6153519;23;1227;-78
2020/12/06 02:16:32;;;;;;;;;;;;;;;;;;6153165;23;1111;-79
2020/12/06 02:18:58;;;;;;;;;;;;;;;;;;6153879;23;1159;-79
2020/12/06 02:21:25;;;;;;;;;;;;;;;;;;6128205;23;1271;-78
2020/12/06 02:23:51;;;;;;;;;;;;;;;;;;6152747;23;1909;-79
2020/12/06 02:26:18;;;;;;;;;;;;;;;;;;6152386;23;1028;-78
2020/12/06 02:28:44;;;;;;;;;;;;;;;;;;6152607;23;1219;-78
2020/12/06 02:31:11;;;;;;;;;;;;;;;;;;6153698;23;1108;-78
2020/12/06 02:33:37;;;;;;;;;;;;;;;;;;6154173;23;1090;-77
2020/12/06 02:36:03;;;;;;;;;;;;;;;;;;6153222;23;1043;-78
2020/12/06 02:38:30;;;;;;;;;;;;;;;;;;6143897;23;1162;-80
2020/12/06 02:40:56;;;;;;;;;;;;;;;;;;6150194;23;9620;-78
2020/12/06 02:43:23;;;;;;;;;;;;;;;;;;6119120;23;10749;-78
2020/12/06 02:45:49;;;;;;;;;;;;;;;;;;6124886;23;1075;-76
2020/12/06 02:48:15;;;;;;;;;;;;;;;;;;6124868;23;1040;-77
2020/12/06 02:50:41;;;;;;;;;;;;;;;;;;6123532;23;1059;-78
2020/12/06 02:53:08;;;;;;;;;;;;;;;;;;6122036;23;1088;-79
2020/12/06 02:55:35;;;;;;;;;;;;;;;;;;6122857;23;1123;-78
2020/12/06 02:58:01;;;;;;;;;;;;;;;;;;6121488;23;1099;-79
2020/12/06 03:00:28;;;;;;;;;;;;;;;;;;6123783;23;1033;-78
2020/12/06 03:02:54;;;;;;;;;;;;;;;;;;6123160;23;1175;-77
2020/12/06 03:05:20;;;;;;;;;;;;;;;;;;6123718;23;1921;-79
2020/12/06 03:07:46;;;;;;;;;;;;;;;;;;6123288;23;1060;-78
2020/12/06 03:10:13;;;;;;;;;;;;;;;;;;6123290;23;1036;-79
2020/12/06 03:12:40;;;;;;;;;;;;;;;;;;6123538;23;1012;-78
2020/12/06 03:15:06;;;;;;;;;;;;;;;;;;6121457;23;1144;-79
2020/12/06 03:17:32;;;;;;;;;;;;;;;;;;6123242;23;1127;-79
2020/12/06 03:19:58;;;;;;;;;;;;;;;;;;6123664;23;1086;-78
2020/12/06 03:22:25;;;;;;;;;;;;;;;;;;6123293;23;1314;-78
2020/12/06 03:24:50;;;;;;;;;;;;;;;;;;6124404;23;1941;-78
2020/12/06 03:27:17;;;;;;;;;;;;;;;;;;6120493;23;1124;-80
2020/12/06 03:29:44;;;;;;;;;;;;;;;;;;6123153;23;1305;-78
2020/12/06 03:32:10;;;;;;;;;;;;;;;;;;6123095;23;1088;-79
2020/12/06 03:34:36;;;;;;;;;;;;;;;;;;6123492;23;1068;-79
2020/12/06 03:37:04;;;;;;;;;;;;;;;;;;6122316;23;1075;-78
2020/12/06 03:39:30;;;;;;;;;;;;;;;;;;6119356;23;1064;-78
2020/12/06 03:41:56;;;;;;;;;;;;;;;;;;6128432;23;1260;-78
2020/12/06 03:44:22;;;;;;;;;;;;;;;;;;6150829;23;1926;-78
2020/12/06 03:46:50;;;;;;;;;;;;;;;;;;6126618;23;1096;-79
2020/12/06 03:49:16;;;;;;;;;;;;;;;;;;6151678;23;1108;-78
2020/12/06 03:51:42;;;;;;;;;;;;;;;;;;6152385;23;1096;-79
2020/12/06 03:54:08;;;;;;;;;;;;;;;;;;6151003;23;1088;-81
2020/12/06 03:56:34;;;;;;;;;;;;;;;;;;6151698;23;1043;-78
2020/12/06 03:59:01;;;;;;;;;;;;;;;;;;6152823;23;1087;-79
2020/12/06 04:01:27;;;;;;;;;;;;;;;;;;6151855;23;1061;-77
2020/12/06 04:03:54;;;;;;;;;;;;;;;;;;6146018;23;1905;-77
2020/12/06 04:06:20;;;;;;;;;;;;;;;;;;6148258;23;1100;-79
2020/12/06 04:08:46;;;;;;;;;;;;;;;;;;6151525;23;1092;-78
2020/12/06 04:11:13;;;;;;;;;;;;;;;;;;6151360;23;1044;-78
2020/12/06 04:13:39;;;;;;;;;;;;;;;;;;6152205;23;1027;-78
2020/12/06 04:16:05;;;;;;;;;;;;;;;;;;6153248;23;1085;-80
2020/12/06 04:18:31;;;;;;;;;;;;;;;;;;6152826;23;1095;-79
2020/12/06 04:20:58;;;;;;;;;;;;;;;;;;6152227;23;1079;-78
2020/12/06 04:23:25;;;;;;;;;;;;;;;;;;6151794;23;1946;-79
2020/12/06 04:25:51;;;;;;;;;;;;;;;;;;6152018;23;1082;-78
2020/12/06 04:28:17;;;;;;;;;;;;;;;;;;6152450;23;1084;-79
2020/12/06 04:30:43;;;;;;;;;;;;;;;;;;6153234;23;1082;-78
2020/12/06 04:33:09;;;;;;;;;;;;;;;;;;6151474;23;1126;-79
2020/12/06 04:35:35;;;;;;;;;;;;;;;;;;6151802;23;1017;-77
2020/12/06 04:38:02;;;;;;;;;;;;;;;;;;6151746;23;1027;-78
2020/12/06 04:40:29;;;;;;;;;;;;;;;;;;6150031;23;1132;-79
2020/12/06 04:42:56;;;;;;;;;;;;;;;;;;6148400;23;1113;-77
2020/12/06 04:45:22;;;;;;;;;;;;;;;;;;6152523;23;1940;-79
2020/12/06 04:47:52;;;;;;;;;;;;;;;;;;6151333;23;1183;-77
2020/12/06 04:50:25;;;;;;;;;;;;;;;;;;6150151;23;1142;-79
2020/12/06 04:52:56;;;;;;;;;;;;;;;;;;6151148;23;1003;-78
2020/12/06 04:55:25;;;;;;;;;;;;;;;;;;6150729;23;1012;-78
2020/12/06 04:57:51;;;;;;;;;;;;;;;;;;6152371;23;1131;-79
2020/12/06 05:00:20;;;;;;;;;;;;;;;;;;6152171;23;793;-77
2020/12/06 05:02:47;;;;;;;;;;;;;;;;;;6148657;23;1139;-79
2020/12/06 05:05:14;;;;;;;;;;;;;;;;;;6151967;23;1952;-79
2020/12/06 05:07:44;;;;;;;;;;;;;;;;;;6152819;23;1139;-79
2020/12/06 05:10:11;;;;;;;;;;;;;;;;;;6153086;23;1059;-77
2020/12/06 05:12:38;;;;;;;;;;;;;;;;;;6152425;23;1151;-79
2020/12/06 05:15:04;;;;;;;;;;;;;;;;;;6154119;23;1131;-79
2020/12/06 05:17:30;;;;;;;;;;;;;;;;;;6153176;23;1094;-78
2020/12/06 05:20:08;;;;;;;;;;;;;;;;;;6152996;23;1147;-81
2020/12/06 05:22:34;;;;;;;;;;;;;;;;;;6153103;23;1215;-77
2020/12/06 05:25:00;;;;;;;;;;;;;;;;;;6153406;23;1905;-78
2020/12/06 05:27:27;;;;;;;;;;;;;;;;;;6153723;23;1115;-78
2020/12/06 05:29:54;;;;;;;;;;;;;;;;;;6154311;23;1253;-80
2020/12/06 05:32:20;;;;;;;;;;;;;;;;;;6153211;23;1012;-78
2020/12/06 05:34:46;;;;;;;;;;;;;;;;;;6152196;23;1076;-77
2020/12/06 05:37:13;;;;;;;;;;;;;;;;;;6152595;23;1096;-78
2020/12/06 05:39:39;;;;;;;;;;;;;;;;;;6153784;23;1153;-78
2020/12/06 05:42:05;;;;;;;;;;;;;;;;;;6153480;23;1196;-78
2020/12/06 05:44:32;;;;;;;;;;;;;;;;;;6152045;23;1893;-80
2020/12/06 05:47:01;;;;;;;;;;;;;;;;;;6150515;23;10298;-79
2020/12/06 05:49:27;;;;;;;;;;;;;;;;;;6153294;23;1097;-78
2020/12/06 05:51:54;;;;;;;;;;;;;;;;;;6154766;23;1048;-81
2020/12/06 05:54:22;;;;;;;;;;;;;;;;;;6153558;23;1054;-78
2020/12/06 05:56:51;;;;;;;;;;;;;;;;;;6151029;23;1004;-78
2020/12/06 05:59:18;;;;;;;;;;;;;;;;;;6153478;23;1062;-78
2020/12/06 06:01:44;;;;;;;;;;;;;;;;;;6152296;23;1107;-79
2020/12/06 06:04:12;;;;;;;;;;;;;;;;;;6152737;23;1897;-78
2020/12/06 06:06:39;;;;;;;;;;;;;;;;;;6154315;23;1143;-79
2020/12/06 06:09:06;;;;;;;;;;;;;;;;;;6153143;23;1084;-79
2020/12/06 06:11:32;;;;;;;;;;;;;;;;;;6152567;23;1315;-78
2020/12/06 06:13:59;;;;;;;;;;;;;;;;;;6152680;23;1112;-78
2020/12/06 06:16:27;;;;;;;;;;;;;;;;;;6153496;23;1055;-77
2020/12/06 06:18:54;;;;;;;;;;;;;;;;;;6153053;23;1182;-77
2020/12/06 06:21:23;;;;;;;;;;;;;;;;;;6153321;23;1071;-78
2020/12/06 06:23:50;;;;;;;;;;;;;;;;;;6152471;23;1923;-79
2020/12/06 06:26:18;;;;;;;;;;;;;;;;;;6153894;23;1048;-79
2020/12/06 06:28:45;;;;;;;;;;;;;;;;;;6152491;23;1039;-78
2020/12/06 06:31:11;;;;;;;;;;;;;;;;;;6153290;23;1020;-80
2020/12/06 06:33:39;;;;;;;;;;;;;;;;;;6152643;23;1024;-78
2020/12/06 06:36:06;;;;;;;;;;;;;;;;;;6153763;23;1031;-78
2020/12/06 06:38:38;;;;;;;;;;;;;;;;;;6151362;23;1040;-78
2020/12/06 06:41:05;;;;;;;;;;;;;;;;;;6151574;23;1034;-79
2020/12/06 06:43:33;;;;;;;;;;;;;;;;;;6151535;23;1221;-79
2020/12/06 06:46:06;;;;;;;;;;;;;;;;;;6152569;23;1953;-77
2020/12/06 06:48:32;;;;;;;;;;;;;;;;;;6153139;23;1016;-78
2020/12/06 06:50:58;;;;;;;;;;;;;;;;;;6153064;23;1056;-80
2020/12/06 06:53:25;;;;;;;;;;;;;;;;;;6152426;23;1100;-79
2020/12/06 06:55:52;;;;;;;;;;;;;;;;;;6152937;23;1163;-79
2020/12/06 06:58:22;;;;;;;;;;;;;;;;;;6151978;23;1055;-78
2020/12/06 07:00:48;;;;;;;;;;;;;;;;;;6152906;23;1147;-78
2020/12/06 07:03:15;;;;;;;;;;;;;;;;;;6151767;23;1439;-79
2020/12/06 07:05:41;;;;;;;;;;;;;;;;;;6153727;23;1889;-78
2020/12/06 07:08:12;;;;;;;;;;;;;;;;;;6153215;23;1366;-78
2020/12/06 07:10:39;;;;;;;;;;;;;;;;;;6153001;23;1052;-79
2020/12/06 07:13:06;;;;;;;;;;;;;;;;;;6152705;23;1518;-78
2020/12/06 07:15:32;;;;;;;;;;;;;;;;;;6152877;23;1119;-78
2020/12/06 07:17:58;;;;;;;;;;;;;;;;;;6152314;23;918;-79
2020/12/06 07:20:26;;;;;;;;;;;;;;;;;;6151281;23;1089;-78
2020/12/06 07:22:53;;;;;;;;;;;;;;;;;;6151485;23;1170;-78
2020/12/06 07:25:20;;;;;;;;;;;;;;;;;;6152549;23;1929;-78
2020/12/06 07:27:46;;;;;;;;;;;;;;;;;;6153426;23;1131;-78
2020/12/06 07:30:14;;;;;;;;;;;;;;;;;;6152308;23;1501;-78
2020/12/06 07:32:41;;;;;;;;;;;;;;;;;;6152222;23;1076;-79
2020/12/06 07:35:07;;;;;;;;;;;;;;;;;;6126381;23;1179;-79
2020/12/06 07:37:33;;;;;;;;;;;;;;;;;;6153607;23;1100;-78
2020/12/06 07:39:59;;;;;;;;;;;;;;;;;;6152339;23;1578;-80
2020/12/06 07:42:26;;;;;;;;;;;;;;;;;;6151807;23;1231;-79
2020/12/06 07:44:53;;;;;;;;;;;;;;;;;;6152093;23;1932;-78
2020/12/06 07:47:21;;;;;;;;;;;;;;;;;;6152129;23;1139;-78
2020/12/06 07:49:48;;;;;;;;;;;;;;;;;;6154012;23;1134;-77
2020/12/06 07:52:15;;;;;;;;;;;;;;;;;;6153384;23;1119;-77
2020/12/06 07:54:41;;;;;;;;;;;;;;;;;;6154354;23;1083;-78
2020/12/06 07:57:10;;;;;;;;;;;;;;;;;;6152741;23;1103;-78
2020/12/06 07:59:37;;;;;;;;;;;;;;;;;;6152708;23;1218;-78
2020/12/06 08:02:05;;;;;;;;;;;;;;;;;;6152152;23;1527;-79
2020/12/06 08:04:34;;;;;;;;;;;;;;;;;;6153633;23;1897;-79
2020/12/06 08:07:03;;;;;;;;;;;;;;;;;;6153302;23;1141;-78
2020/12/06 08:09:33;;;;;;;;;;;;;;;;;;6153422;23;1134;-79
2020/12/06 08:12:01;;;;;;;;;;;;;;;;;;6152830;23;1002;-77
2020/12/06 08:14:27;;;;;;;;;;;;;;;;;;6152675;23;1043;-78
2020/12/06 08:16:57;;;;;;;;;;;;;;;;;;6153549;23;1093;-78
2020/12/06 08:19:24;;;;;;;;;;;;;;;;;;6154520;23;1083;-77
2020/12/06 08:21:51;;;;;;;;;;;;;;;;;;6154202;23;1104;-78
2020/12/06 08:24:21;;;;;;;;;;;;;;;;;;6152690;23;1926;-79
2020/12/06 08:26:47;;;;;;;;;;;;;;;;;;6153431;23;1043;-78
2020/12/06 08:29:14;;;;;;;;;;;;;;;;;;6153089;23;1093;-78
2020/12/06 08:31:40;;;;;;;;;;;;;;;;;;6153999;23;1008;-78
2020/12/06 08:34:07;;;;;;;;;;;;;;;;;;6153645;23;1066;-78
2020/12/06 08:36:33;;;;;;;;;;;;;;;;;;6155624;23;1075;-80
2020/12/06 08:39:00;;;;;;;;;;;;;;;;;;6154105;23;1332;-78
2020/12/06 08:41:27;;;;;;;;;;;;;;;;;;6156974;23;1090;-80
2020/12/06 08:43:54;;;;;;;;;;;;;;;;;;6131390;23;1933;-79
2020/12/06 08:46:20;;;;;;;;;;;;;;;;;;6157506;23;1084;-79
2020/12/06 08:48:47;;;;;;;;;;;;;;;;;;6158294;23;1519;-80
2020/12/06 08:51:29;;;;;;;;;;;;;;;;;;6151091;23;1111;-80
2020/12/06 08:53:56;;;;;;;;;;;;;;;;;;6155822;23;1029;-79
2020/12/06 08:56:28;;;;;;;;;;;;;;;;;;6158292;23;1144;-80
2020/12/06 08:58:54;;;;;;;;;;;;;;;;;;6157567;23;1147;-80
2020/12/06 09:01:20;;;;;;;;;;;;;;;;;;6158741;23;1641;-79
2020/12/06 09:03:47;;;;;;;;;;;;;;;;;;6160520;23;1179;-80
2020/12/06 09:06:16;;;;;;;;;;;;;;;;;;6162140;23;1905;-79
2020/12/06 09:08:43;;;;;;;;;;;;;;;;;;6166233;23;1191;-80
2020/12/06 09:11:19;;;;;;;;;;;;;;;;;;6170680;23;1112;-81
2020/12/06 09:16:51;;;;;;;;;;;;;;;;;;6173643;23;1207;-82
2020/12/06 09:28:00;;;;;;;;;;;;;;;;;;6114681;23;1514;-82
2020/12/06 09:30:48;;;;;;;;;;;;;;;;;;6183613;23;1174;-82
2020/12/06 09:49:01;;;;;;;;;;;;;;;;;;5919067;24;1184;-82
2020/12/06 09:51:44;;;;;;;;;;;;;;;;;;5978799;24;1074;-82
2020/12/06 11:58:17;;;;;;;;;;;;;;;;;;6052119;23;1518;-82
2020/12/06 12:00:46;;;;;;;;;;;;;;;;;;6050888;23;1359;-81
2020/12/06 12:03:15;;;;;;;;;;;;;;;;;;6049560;23;1175;-81
2020/12/06 12:05:49;;;;;;;;;;;;;;;;;;6047179;23;1893;-80
2020/12/06 12:08:21;;;;;;;;;;;;;;;;;;6022523;23;1596;-80
2020/12/06 12:11:09;;;;;;;;;;;;;;;;;;6043872;23;1307;-81
2020/12/06 12:13:38;;;;;;;;;;;;;;;;;;6044072;23;1688;-81
2020/12/06 12:16:07;;;;;;;;;;;;;;;;;;6044081;23;1147;-81
2020/12/06 12:18:37;;;;;;;;;;;;;;;;;;6044681;23;1089;-80
2020/12/06 12:21:10;;;;;;;;;;;;;;;;;;6021450;23;1540;-81
2020/12/06 12:26:23;;;;;;;;;;;;;;;;;;6042796;23;1956;-80
2020/12/06 12:28:49;;;;;;;;;;;;;;;;;;6042018;23;1238;-82
2020/12/06 12:31:17;;;;;;;;;;;;;;;;;;6043500;23;1235;-81
2020/12/06 12:33:46;;;;;;;;;;;;;;;;;;6043849;23;1601;-80
2020/12/06 12:36:13;;;;;;;;;;;;;;;;;;6103520;23;1298;-81
2020/12/06 12:38:47;;;;;;;;;;;;;;;;;;6081173;23;1107;-81
2020/12/06 12:41:16;;;;;;;;;;;;;;;;;;6106858;23;1693;-81
2020/12/06 12:43:48;;;;;;;;;;;;;;;;;;6132322;23;1092;-81
2020/12/06 12:46:16;;;;;;;;;;;;;;;;;;6132953;23;1923;-82
2020/12/06 12:48:44;;;;;;;;;;;;;;;;;;6129859;23;1108;-80
2020/12/06 12:51:11;;;;;;;;;;;;;;;;;;6130459;23;1290;-80
2020/12/06 12:53:38;;;;;;;;;;;;;;;;;;6104879;23;1118;-80
2020/12/06 12:56:10;;;;;;;;;;;;;;;;;;6103600;23;1393;-81
2020/12/06 12:58:40;;;;;;;;;;;;;;;;;;6131086;23;992;-80
2020/12/06 13:01:10;;;;;;;;;;;;;;;;;;6130863;23;1098;-80
2020/12/06 13:03:38;;;;;;;;;;;;;;;;;;6079618;23;1471;-80
2020/12/06 13:06:06;;;;;;;;;;;;;;;;;;6103546;23;1893;-81
2020/12/06 13:08:32;;;;;;;;;;;;;;;;;;6103030;23;1323;-81
2020/12/06 13:11:00;;;;;;;;;;;;;;;;;;6128824;23;1789;-81
2020/12/06 13:13:28;;;;;;;;;;;;;;;;;;6103733;23;1216;-81
2020/12/06 13:15:56;;;;;;;;;;;;;;;;;;6105366;23;1205;-81
2020/12/06 13:18:23;;;;;;;;;;;;;;;;;;6130338;23;1083;-80
2020/12/06 13:20:54;;;;;;;;;;;;;;;;;;6107668;23;1212;-81
2020/12/06 13:23:29;;;;;;;;;;;;;;;;;;6133611;23;1129;-81
2020/12/06 13:25:57;;;;;;;;;;;;;;;;;;6134773;23;1907;-81
2020/12/06 13:28:25;;;;;;;;;;;;;;;;;;6135963;23;1139;-81
2020/12/06 13:30:54;;;;;;;;;;;;;;;;;;6138406;23;1708;-81
2020/12/06 13:33:25;;;;;;;;;;;;;;;;;;6138603;23;1144;-81
2020/12/06 13:35:56;;;;;;;;;;;;;;;;;;6139772;23;1524;-81
2020/12/06 13:38:28;;;;;;;;;;;;;;;;;;6138390;23;1165;-80
2020/12/06 13:41:29;;;;;;;;;;;;;;;;;;6139790;23;1566;-81
2020/12/06 13:46:41;;;;;;;;;;;;;;;;;;6138015;23;1889;-81
2020/12/06 13:49:12;;;;;;;;;;;;;;;;;;6135094;23;1092;-81
2020/12/06 13:51:39;;;;;;;;;;;;;;;;;;6135671;23;1130;-80
2020/12/06 13:54:16;;;;;;;;;;;;;;;;;;6133423;23;1665;-80
2020/12/06 13:56:44;;;;;;;;;;;;;;;;;;6133568;23;1493;-81
2020/12/06 13:59:13;;;;;;;;;;;;;;;;;;6133728;23;1132;-81
2020/12/06 14:01:49;;;;;;;;;;;;;;;;;;6132886;23;1122;-81
2020/12/06 14:04:18;;;;;;;;;;;;;;;;;;6134112;23;1108;-81
2020/12/06 14:06:54;;;;;;;;;;;;;;;;;;6133473;23;1938;-80
2020/12/06 14:09:22;;;;;;;;;;;;;;;;;;6131905;23;1090;-80
2020/12/06 14:11:52;;;;;;;;;;;;;;;;;;6134562;23;1044;-81
2020/12/06 14:14:22;;;;;;;;;;;;;;;;;;6136240;23;1178;-80
2020/12/06 14:16:59;;;;;;;;;;;;;;;;;;6133436;23;1266;-80
2020/12/06 14:19:26;;;;;;;;;;;;;;;;;;6108317;23;1473;-80
2020/12/06 14:21:54;;;;;;;;;;;;;;;;;;6140621;23;1119;-81
2020/12/06 14:24:23;;;;;;;;;;;;;;;;;;6136536;23;1116;-81
2020/12/06 14:26:56;;;;;;;;;;;;;;;;;;6135879;23;1568;-81
2020/12/06 14:29:24;;;;;;;;;;;;;;;;;;6133196;23;1098;-80
2020/12/06 14:31:54;;;;;;;;;;;;;;;;;;6131750;23;1287;-80
2020/12/06 14:34:30;;;;;;;;;;;;;;;;;;6109347;23;1257;-81
2020/12/06 14:36:59;;;;;;;;;;;;;;;;;;6136483;23;1118;-81
2020/12/06 14:39:28;;;;;;;;;;;;;;;;;;6110135;23;1410;-80
2020/12/06 14:42:05;;;;;;;;;;;;;;;;;;6135567;23;1464;-80
2020/12/06 14:44:32;;;;;;;;;;;;;;;;;;6135177;23;1957;-80
2020/12/06 14:47:05;;;;;;;;;;;;;;;;;;6133951;23;1621;-81
2020/12/06 14:49:35;;;;;;;;;;;;;;;;;;6133643;23;1563;-81
2020/12/06 14:52:04;;;;;;;;;;;;;;;;;;6132096;23;1110;-81
2020/12/06 14:54:30;;;;;;;;;;;;;;;;;;6128739;23;1100;-81
2020/12/06 14:56:57;;;;;;;;;;;;;;;;;;6133637;23;1135;-81
2020/12/06 14:59:26;;;;;;;;;;;;;;;;;;6107477;23;1188;-80
2020/12/06 15:01:55;;;;;;;;;;;;;;;;;;6134191;23;1117;-80
2020/12/06 15:04:28;;;;;;;;;;;;;;;;;;6108280;23;1515;-80
2020/12/06 15:06:57;;;;;;;;;;;;;;;;;;6134402;23;993;-80
2020/12/06 15:09:28;;;;;;;;;;;;;;;;;;6132251;23;1605;-80
2020/12/06 15:11:59;;;;;;;;;;;;;;;;;;6105131;23;1318;-81
2020/12/06 15:14:27;;;;;;;;;;;;;;;;;;6136753;23;1562;-80
2020/12/06 15:16:56;;;;;;;;;;;;;;;;;;6133273;23;1047;-81
2020/12/06 15:19:25;;;;;;;;;;;;;;;;;;6132610;23;1194;-80
2020/12/06 15:21:55;;;;;;;;;;;;;;;;;;6133139;23;1125;-80
2020/12/06 15:24:27;;;;;;;;;;;;;;;;;;6130994;23;1155;-80
2020/12/06 15:26:53;;;;;;;;;;;;;;;;;;6131714;23;1893;-80
2020/12/06 15:29:20;;;;;;;;;;;;;;;;;;6130167;23;1217;-80
2020/12/06 15:31:46;;;;;;;;;;;;;;;;;;6130800;23;1577;-80
2020/12/06 15:34:13;;;;;;;;;;;;;;;;;;6131084;23;1248;-81
2020/12/06 15:36:41;;;;;;;;;;;;;;;;;;6129196;23;1498;-79
2020/12/06 15:39:07;;;;;;;;;;;;;;;;;;6129982;23;1175;-81
2020/12/06 15:41:34;;;;;;;;;;;;;;;;;;6130875;23;1483;-81
2020/12/06 15:44:01;;;;;;;;;;;;;;;;;;6130322;23;1125;-81
2020/12/06 15:46:32;;;;;;;;;;;;;;;;;;6104840;23;1893;-80
2020/12/06 15:49:02;;;;;;;;;;;;;;;;;;6131854;23;1008;-80
2020/12/06 15:51:31;;;;;;;;;;;;;;;;;;6132645;23;1241;-79
2020/12/06 15:54:00;;;;;;;;;;;;;;;;;;6085931;23;10766;-80
2020/12/06 15:56:39;;;;;;;;;;;;;;;;;;6112172;23;1137;-81
2020/12/06 15:59:08;;;;;;;;;;;;;;;;;;6139058;23;1144;-80
2020/12/06 16:01:35;;;;;;;;;;;;;;;;;;6136573;23;1362;-80
2020/12/06 16:04:04;;;;;;;;;;;;;;;;;;6111655;23;1604;-80
2020/12/06 16:06:33;;;;;;;;;;;;;;;;;;6107586;23;1921;-80
2020/12/06 16:09:03;;;;;;;;;;;;;;;;;;6133015;23;1456;-81
2020/12/06 16:11:35;;;;;;;;;;;;;;;;;;6133058;23;1820;-81
2020/12/06 16:14:02;;;;;;;;;;;;;;;;;;6131785;23;1453;-81
2020/12/06 16:16:29;;;;;;;;;;;;;;;;;;6126772;23;1506;-80
2020/12/06 16:18:56;;;;;;;;;;;;;;;;;;6125065;23;1718;-80
2020/12/06 16:21:27;;;;;;;;;;;;;;;;;;6103308;23;1351;-80
2020/12/06 16:23:55;;;;;;;;;;;;;;;;;;6130921;23;1055;-81
2020/12/06 16:26:22;;;;;;;;;;;;;;;;;;6131190;23;1929;-79
2020/12/06 16:28:49;;;;;;;;;;;;;;;;;;6128663;23;1602;-80
2020/12/06 16:31:17;;;;;;;;;;;;;;;;;;6133065;23;1051;-81
2020/12/06 16:36:30;;;;;;;;;;;;;;;;;;6138878;23;1883;-80
2020/12/06 16:38:58;;;;;;;;;;;;;;;;;;6134360;23;1535;-81
2020/12/06 16:41:28;;;;;;;;;;;;;;;;;;6133115;23;1524;-80
2020/12/06 16:43:55;;;;;;;;;;;;;;;;;;6131743;23;985;-81
2020/12/06 16:46:29;;;;;;;;;;;;;;;;;;6136808;23;1957;-80
2020/12/06 16:48:56;;;;;;;;;;;;;;;;;;6132494;23;1348;-81
2020/12/06 16:51:23;;;;;;;;;;;;;;;;;;6132668;23;1350;-81
2020/12/06 16:53:53;;;;;;;;;;;;;;;;;;6107483;23;1586;-80
2020/12/06 16:56:24;;;;;;;;;;;;;;;;;;6083086;23;10270;-81
2020/12/06 16:59:06;;;;;;;;;;;;;;;;;;6161216;23;1610;-80
2020/12/06 17:04:30;;;;;;;;;;;;;;;;;;6166088;23;1625;-81
2020/12/06 17:07:03;;;;;;;;;;;;;;;;;;6138763;23;1897;-80
2020/12/06 17:09:32;;;;;;;;;;;;;;;;;;6160568;23;1261;-79
2020/12/06 17:11:58;;;;;;;;;;;;;;;;;;6164758;23;1514;-81
2020/12/06 17:14:32;;;;;;;;;;;;;;;;;;6162251;23;1557;-80
2020/12/06 17:17:04;;;;;;;;;;;;;;;;;;6162482;23;1074;-81
2020/12/06 17:19:35;;;;;;;;;;;;;;;;;;6168768;23;1651;-81
2020/12/06 17:24:46;;;;;;;;;;;;;;;;;;6163831;23;1952;-80
2020/12/06 17:27:15;;;;;;;;;;;;;;;;;;6168157;23;1678;-80
2020/12/06 17:30:05;;;;;;;;;;;;;;;;;;6164906;23;1579;-81
2020/12/06 17:32:32;;;;;;;;;;;;;;;;;;6093137;23;1108;-81
2020/12/06 17:35:02;;;;;;;;;;;;;;;;;;6161259;23;1080;-79
2020/12/06 17:37:32;;;;;;;;;;;;;;;;;;6132860;23;1232;-80
2020/12/06 17:40:00;;;;;;;;;;;;;;;;;;6164258;23;1546;-81
2020/12/06 17:42:28;;;;;;;;;;;;;;;;;;6163729;23;1068;-80
2020/12/06 17:44:59;;;;;;;;;;;;;;;;;;6161566;23;1913;-80
2020/12/06 17:47:27;;;;;;;;;;;;;;;;;;6157671;23;1206;-80
2020/12/06 17:49:53;;;;;;;;;;;;;;;;;;6156840;23;1216;-80
2020/12/06 17:52:20;;;;;;;;;;;;;;;;;;6155386;23;1553;-80
2020/12/06 17:54:47;;;;;;;;;;;;;;;;;;6153765;23;1111;-80
2020/12/06 17:57:13;;;;;;;;;;;;;;;;;;6152229;23;1144;-79
2020/12/06 17:59:40;;;;;;;;;;;;;;;;;;6153909;23;1187;-80
2020/12/06 18:02:07;;;;;;;;;;;;;;;;;;6152504;23;1606;-79
2020/12/06 18:04:33;;;;;;;;;;;;;;;;;;6152771;23;1326;-80
2020/12/06 18:06:59;;;;;;;;;;;;;;;;;;6152341;23;1952;-80
2020/12/06 18:09:26;;;;;;;;;;;;;;;;;;6154047;23;1659;-81
2020/12/06 18:11:54;;;;;;;;;;;;;;;;;;6154863;23;1501;-80
2020/12/06 18:14:22;;;;;;;;;;;;;;;;;;6157712;23;1063;-80
2020/12/06 18:16:48;;;;;;;;;;;;;;;;;;6154008;23;1065;-80
2020/12/06 18:19:19;;;;;;;;;;;;;;;;;;6153221;23;1276;-81
2020/12/06 18:21:45;;;;;;;;;;;;;;;;;;6157455;23;1698;-80
2020/12/06 18:24:11;;;;;;;;;;;;;;;;;;6155695;23;1503;-79
2020/12/06 18:26:39;;;;;;;;;;;;;;;;;;6152736;23;1897;-80
2020/12/06 18:29:05;;;;;;;;;;;;;;;;;;6153197;23;1510;-80
2020/12/06 18:31:32;;;;;;;;;;;;;;;;;;6152520;23;1702;-81
2020/12/06 18:34:01;;;;;;;;;;;;;;;;;;6129357;23;1412;-80
2020/12/06 18:36:29;;;;;;;;;;;;;;;;;;6127983;23;1311;-80
2020/12/06 18:38:56;;;;;;;;;;;;;;;;;;6149972;23;1019;-81
2020/12/06 18:47:04;;;;;;;;;;;;;;;;;;6168335;23;1865;-81
2020/12/06 18:49:34;;;;;;;;;;;;;;;;;;6159232;23;1088;-81
2020/12/06 18:52:02;;;;;;;;;;;;;;;;;;6156884;23;1547;-81
2020/12/06 18:54:29;;;;;;;;;;;;;;;;;;6153041;23;1012;-81
2020/12/06 18:56:57;;;;;;;;;;;;;;;;;;6155032;23;1675;-80
2020/12/06 18:59:23;;;;;;;;;;;;;;;;;;6152926;23;1169;-79
2020/12/06 19:01:50;;;;;;;;;;;;;;;;;;6154877;23;1053;-80
2020/12/06 19:04:16;;;;;;;;;;;;;;;;;;6154206;23;1287;-81
2020/12/06 19:06:44;;;;;;;;;;;;;;;;;;6158192;23;1897;-81
2020/12/06 19:09:14;;;;;;;;;;;;;;;;;;6132906;23;1302;-81
2020/12/06 19:11:51;;;;;;;;;;;;;;;;;;6158077;23;1239;-81
2020/12/06 19:14:21;;;;;;;;;;;;;;;;;;6156030;23;1103;-81
2020/12/06 19:16:51;;;;;;;;;;;;;;;;;;6158161;23;1289;-80
2020/12/06 19:19:18;;;;;;;;;;;;;;;;;;6082735;23;10706;-81
2020/12/06 19:21:45;;;;;;;;;;;;;;;;;;6156886;23;1415;-82
2020/12/06 19:24:12;;;;;;;;;;;;;;;;;;6159448;23;1526;-81
2020/12/06 19:26:50;;;;;;;;;;;;;;;;;;6161308;23;1862;-80
2020/12/06 19:32:14;;;;;;;;;;;;;;;;;;6108048;23;1078;-81
2020/12/06 19:34:48;;;;;;;;;;;;;;;;;;6139266;23;1483;-81
2020/12/06 19:37:22;;;;;;;;;;;;;;;;;;6158281;23;1444;-80
2020/12/06 19:39:49;;;;;;;;;;;;;;;;;;6161665;23;1261;-80
2020/12/06 19:42:21;;;;;;;;;;;;;;;;;;6164905;23;1193;-80
2020/12/06 19:44:50;;;;;;;;;;;;;;;;;;6137927;23;1363;-80
2020/12/06 19:47:19;;;;;;;;;;;;;;;;;;6165435;23;1870;-80
2020/12/06 19:49:56;;;;;;;;;;;;;;;;;;6161806;23;1463;-81
2020/12/06 19:52:39;;;;;;;;;;;;;;;;;;6171241;23;1234;-81
2020/12/06 19:55:11;;;;;;;;;;;;;;;;;;6165990;23;1189;-81
2020/12/06 19:57:41;;;;;;;;;;;;;;;;;;6164938;23;1742;-80
2020/12/06 20:00:13;;;;;;;;;;;;;;;;;;6163272;23;1108;-82
2020/12/06 20:02:41;;;;;;;;;;;;;;;;;;6136931;23;1472;-80
2020/12/06 20:05:08;;;;;;;;;;;;;;;;;;6158425;23;1901;-80